sensor_id;sensor_type;location;lat;lon;timestamp;P1;durP1;ratioP1;P2;durP2;ratioP2
35126;SDS011;21300;52.006;5.798;2023-02-07T00:00:05;12.75;;;3.10;;
35126;SDS011;21300;52.006;5.798;2023-02-07T00:05:09;10.20;;;2.40;;
35126;SDS011;21300;52.006;5.798;2023-02-07T00:07:35;10.27;;;3.15;;
35126;SDS011;21300;52.006;5.798;2023-02-07T00:10:01;17.35;;;3.55;;
35126;SDS011;21300;52.006;5.798;2023-02-07T00:12:27;14.35;;;3.03;;
35126;SDS011;21300;52.006;5.798;2023-02-07T00:14:53;16.52;;;3.47;;
35126;SDS011;21300;52.006;5.798;2023-02-07T00:17:19;12.80;;;3.22;;
35126;SDS011;21300;52.006;5.798;2023-02-07T00:19:44;13.88;;;2.88;;
35126;SDS011;21300;52.006;5.798;2023-02-07T00:22:10;12.10;;;3.30;;
35126;SDS011;21300;52.006;5.798;2023-02-07T00:24:35;11.35;;;3.35;;
35126;SDS011;21300;52.006;5.798;2023-02-07T00:27:01;13.38;;;3.45;;
35126;SDS011;21300;52.006;5.798;2023-02-07T00:29:26;15.32;;;3.58;;
35126;SDS011;21300;52.006;5.798;2023-02-07T00:31:52;13.10;;;3.63;;
35126;SDS011;21300;52.006;5.798;2023-02-07T00:34:17;11.90;;;3.85;;
35126;SDS011;21300;52.006;5.798;2023-02-07T00:36:43;14.02;;;3.72;;
35126;SDS011;21300;52.006;5.798;2023-02-07T00:39:13;11.57;;;3.00;;
35126;SDS011;21300;52.006;5.798;2023-02-07T00:41:40;12.02;;;3.35;;
35126;SDS011;21300;52.006;5.798;2023-02-07T00:44:06;9.60;;;3.70;;
35126;SDS011;21300;52.006;5.798;2023-02-07T00:46:32;12.45;;;3.30;;
35126;SDS011;21300;52.006;5.798;2023-02-07T00:48:58;11.43;;;3.55;;
35126;SDS011;21300;52.006;5.798;2023-02-07T00:51:24;12.02;;;3.80;;
35126;SDS011;21300;52.006;5.798;2023-02-07T00:53:50;13.05;;;3.28;;
35126;SDS011;21300;52.006;5.798;2023-02-07T00:56:18;9.07;;;3.47;;
35126;SDS011;21300;52.006;5.798;2023-02-07T00:58:45;13.68;;;4.63;;
35126;SDS011;21300;52.006;5.798;2023-02-07T01:01:11;12.88;;;3.83;;
35126;SDS011;21300;52.006;5.798;2023-02-07T01:03:37;11.48;;;3.00;;
35126;SDS011;21300;52.006;5.798;2023-02-07T01:06:03;10.02;;;3.90;;
35126;SDS011;21300;52.006;5.798;2023-02-07T01:08:29;11.98;;;3.88;;
35126;SDS011;21300;52.006;5.798;2023-02-07T01:10:55;10.65;;;4.13;;
35126;SDS011;21300;52.006;5.798;2023-02-07T01:13:20;11.25;;;3.17;;
35126;SDS011;21300;52.006;5.798;2023-02-07T01:15:47;10.25;;;2.95;;
35126;SDS011;21300;52.006;5.798;2023-02-07T01:18:13;15.68;;;3.60;;
35126;SDS011;21300;52.006;5.798;2023-02-07T01:20:39;17.60;;;4.45;;
35126;SDS011;21300;52.006;5.798;2023-02-07T01:23:05;17.90;;;4.65;;
35126;SDS011;21300;52.006;5.798;2023-02-07T01:25:31;14.85;;;4.57;;
35126;SDS011;21300;52.006;5.798;2023-02-07T01:27:57;17.77;;;4.70;;
35126;SDS011;21300;52.006;5.798;2023-02-07T01:30:23;17.70;;;4.72;;
35126;SDS011;21300;52.006;5.798;2023-02-07T01:32:48;15.90;;;4.57;;
35126;SDS011;21300;52.006;5.798;2023-02-07T01:35:15;11.98;;;4.75;;
35126;SDS011;21300;52.006;5.798;2023-02-07T01:37:41;16.88;;;4.70;;
35126;SDS011;21300;52.006;5.798;2023-02-07T01:40:06;16.98;;;5.30;;
35126;SDS011;21300;52.006;5.798;2023-02-07T01:42:33;17.17;;;4.90;;
35126;SDS011;21300;52.006;5.798;2023-02-07T01:45:00;15.05;;;4.93;;
35126;SDS011;21300;52.006;5.798;2023-02-07T01:47:29;11.20;;;4.38;;
35126;SDS011;21300;52.006;5.798;2023-02-07T01:49:56;14.75;;;5.55;;
35126;SDS011;21300;52.006;5.798;2023-02-07T01:52:32;13.95;;;4.95;;
35126;SDS011;21300;52.006;5.798;2023-02-07T01:55:07;10.00;;;4.15;;
35126;SDS011;21300;52.006;5.798;2023-02-07T01:57:38;15.40;;;4.80;;
35126;SDS011;21300;52.006;5.798;2023-02-07T02:00:05;10.07;;;4.47;;
35126;SDS011;21300;52.006;5.798;2023-02-07T02:02:33;13.18;;;4.40;;
35126;SDS011;21300;52.006;5.798;2023-02-07T02:05:00;15.10;;;4.70;;
35126;SDS011;21300;52.006;5.798;2023-02-07T02:07:27;16.55;;;5.13;;
35126;SDS011;21300;52.006;5.798;2023-02-07T02:09:56;14.15;;;5.50;;
35126;SDS011;21300;52.006;5.798;2023-02-07T02:12:39;12.73;;;4.95;;
35126;SDS011;21300;52.006;5.798;2023-02-07T02:15:29;14.18;;;4.30;;
35126;SDS011;21300;52.006;5.798;2023-02-07T02:31:45;17.35;;;5.47;;
35126;SDS011;21300;52.006;5.798;2023-02-07T02:34:43;14.65;;;5.28;;
35126;SDS011;21300;52.006;5.798;2023-02-07T02:40:16;12.65;;;4.93;;
35126;SDS011;21300;52.006;5.798;2023-02-07T02:42:51;14.68;;;5.45;;
35126;SDS011;21300;52.006;5.798;2023-02-07T02:45:42;15.50;;;5.63;;
35126;SDS011;21300;52.006;5.798;2023-02-07T02:50:57;9.60;;;4.68;;
35126;SDS011;21300;52.006;5.798;2023-02-07T02:53:23;18.05;;;5.28;;
35126;SDS011;21300;52.006;5.798;2023-02-07T02:58:42;11.68;;;5.97;;
35126;SDS011;21300;52.006;5.798;2023-02-07T03:01:34;15.80;;;5.97;;
35126;SDS011;21300;52.006;5.798;2023-02-07T03:04:31;17.58;;;5.65;;
35126;SDS011;21300;52.006;5.798;2023-02-07T03:07:20;12.93;;;5.28;;
35126;SDS011;21300;52.006;5.798;2023-02-07T03:18:17;13.77;;;6.05;;
35126;SDS011;21300;52.006;5.798;2023-02-07T03:20:49;21.10;;;6.45;;
35126;SDS011;21300;52.006;5.798;2023-02-07T03:23:17;18.23;;;6.70;;
35126;SDS011;21300;52.006;5.798;2023-02-07T03:25:45;15.00;;;6.15;;
35126;SDS011;21300;52.006;5.798;2023-02-07T03:28:13;14.43;;;6.15;;
35126;SDS011;21300;52.006;5.798;2023-02-07T03:30:40;14.57;;;5.38;;
35126;SDS011;21300;52.006;5.798;2023-02-07T03:33:10;14.02;;;5.53;;
35126;SDS011;21300;52.006;5.798;2023-02-07T03:35:48;17.05;;;7.35;;
35126;SDS011;21300;52.006;5.798;2023-02-07T03:38:19;26.20;;;8.10;;
35126;SDS011;21300;52.006;5.798;2023-02-07T03:40:45;21.73;;;11.52;;
35126;SDS011;21300;52.006;5.798;2023-02-07T03:43:20;21.80;;;8.85;;
35126;SDS011;21300;52.006;5.798;2023-02-07T03:45:49;23.05;;;9.70;;
35126;SDS011;21300;52.006;5.798;2023-02-07T03:48:14;19.80;;;8.32;;
35126;SDS011;21300;52.006;5.798;2023-02-07T03:50:40;22.63;;;9.80;;
35126;SDS011;21300;52.006;5.798;2023-02-07T03:53:05;19.63;;;7.60;;
35126;SDS011;21300;52.006;5.798;2023-02-07T03:55:31;16.90;;;7.65;;
35126;SDS011;21300;52.006;5.798;2023-02-07T03:57:57;16.45;;;6.82;;
35126;SDS011;21300;52.006;5.798;2023-02-07T04:00:23;18.75;;;7.20;;
35126;SDS011;21300;52.006;5.798;2023-02-07T04:02:48;20.42;;;7.82;;
35126;SDS011;21300;52.006;5.798;2023-02-07T04:05:14;17.73;;;8.30;;
35126;SDS011;21300;52.006;5.798;2023-02-07T04:07:40;17.23;;;8.63;;
35126;SDS011;21300;52.006;5.798;2023-02-07T04:10:05;19.48;;;7.90;;
35126;SDS011;21300;52.006;5.798;2023-02-07T04:12:31;17.60;;;8.80;;
35126;SDS011;21300;52.006;5.798;2023-02-07T04:14:57;19.13;;;8.27;;
35126;SDS011;21300;52.006;5.798;2023-02-07T04:17:24;20.73;;;8.70;;
35126;SDS011;21300;52.006;5.798;2023-02-07T04:19:49;22.38;;;9.05;;
35126;SDS011;21300;52.006;5.798;2023-02-07T04:22:15;24.45;;;10.60;;
35126;SDS011;21300;52.006;5.798;2023-02-07T04:24:40;24.95;;;11.27;;
35126;SDS011;21300;52.006;5.798;2023-02-07T04:27:06;25.73;;;10.38;;
35126;SDS011;21300;52.006;5.798;2023-02-07T04:29:31;21.27;;;10.10;;
35126;SDS011;21300;52.006;5.798;2023-02-07T04:31:57;26.92;;;10.35;;
35126;SDS011;21300;52.006;5.798;2023-02-07T04:34:23;20.55;;;10.00;;
35126;SDS011;21300;52.006;5.798;2023-02-07T04:36:48;25.83;;;10.57;;
35126;SDS011;21300;52.006;5.798;2023-02-07T04:39:14;23.45;;;9.57;;
35126;SDS011;21300;52.006;5.798;2023-02-07T04:41:40;24.30;;;9.48;;
35126;SDS011;21300;52.006;5.798;2023-02-07T04:44:05;23.08;;;9.52;;
35126;SDS011;21300;52.006;5.798;2023-02-07T04:46:31;22.95;;;10.57;;
35126;SDS011;21300;52.006;5.798;2023-02-07T04:48:56;22.63;;;9.70;;
35126;SDS011;21300;52.006;5.798;2023-02-07T04:51:22;20.40;;;10.50;;
35126;SDS011;21300;52.006;5.798;2023-02-07T04:53:48;20.88;;;10.02;;
35126;SDS011;21300;52.006;5.798;2023-02-07T04:56:13;21.35;;;9.02;;
35126;SDS011;21300;52.006;5.798;2023-02-07T04:58:39;24.33;;;9.45;;
35126;SDS011;21300;52.006;5.798;2023-02-07T05:01:04;19.50;;;9.52;;
35126;SDS011;21300;52.006;5.798;2023-02-07T05:03:30;21.48;;;10.13;;
35126;SDS011;21300;52.006;5.798;2023-02-07T05:05:55;22.20;;;9.88;;
35126;SDS011;21300;52.006;5.798;2023-02-07T05:08:21;23.08;;;9.27;;
35126;SDS011;21300;52.006;5.798;2023-02-07T05:10:50;23.77;;;11.18;;
35126;SDS011;21300;52.006;5.798;2023-02-07T05:13:19;22.45;;;10.60;;
35126;SDS011;21300;52.006;5.798;2023-02-07T05:15:45;23.25;;;10.82;;
35126;SDS011;21300;52.006;5.798;2023-02-07T05:18:11;25.42;;;11.20;;
35126;SDS011;21300;52.006;5.798;2023-02-07T05:20:36;27.83;;;10.70;;
35126;SDS011;21300;52.006;5.798;2023-02-07T05:23:02;28.50;;;11.77;;
35126;SDS011;21300;52.006;5.798;2023-02-07T05:25:27;20.75;;;9.68;;
35126;SDS011;21300;52.006;5.798;2023-02-07T05:27:53;26.00;;;10.43;;
35126;SDS011;21300;52.006;5.798;2023-02-07T05:30:19;22.42;;;10.50;;
35126;SDS011;21300;52.006;5.798;2023-02-07T05:32:45;21.85;;;10.45;;
35126;SDS011;21300;52.006;5.798;2023-02-07T05:38:05;27.80;;;11.32;;
35126;SDS011;21300;52.006;5.798;2023-02-07T05:40:42;22.63;;;10.35;;
35126;SDS011;21300;52.006;5.798;2023-02-07T05:43:08;21.40;;;10.50;;
35126;SDS011;21300;52.006;5.798;2023-02-07T05:45:35;27.88;;;10.43;;
35126;SDS011;21300;52.006;5.798;2023-02-07T05:48:01;24.70;;;11.25;;
35126;SDS011;21300;52.006;5.798;2023-02-07T05:50:27;23.25;;;10.43;;
35126;SDS011;21300;52.006;5.798;2023-02-07T05:52:53;22.00;;;10.68;;
35126;SDS011;21300;52.006;5.798;2023-02-07T05:55:19;21.38;;;11.20;;
35126;SDS011;21300;52.006;5.798;2023-02-07T05:57:44;21.30;;;10.07;;
35126;SDS011;21300;52.006;5.798;2023-02-07T06:00:12;21.95;;;10.15;;
35126;SDS011;21300;52.006;5.798;2023-02-07T06:02:39;21.40;;;10.10;;
35126;SDS011;21300;52.006;5.798;2023-02-07T06:05:06;22.50;;;10.30;;
35126;SDS011;21300;52.006;5.798;2023-02-07T06:07:32;21.58;;;10.60;;
35126;SDS011;21300;52.006;5.798;2023-02-07T06:09:58;24.88;;;9.88;;
35126;SDS011;21300;52.006;5.798;2023-02-07T06:12:24;25.27;;;10.43;;
35126;SDS011;21300;52.006;5.798;2023-02-07T06:14:49;23.88;;;10.35;;
35126;SDS011;21300;52.006;5.798;2023-02-07T06:17:15;20.17;;;10.02;;
35126;SDS011;21300;52.006;5.798;2023-02-07T06:19:41;22.23;;;10.35;;
35126;SDS011;21300;52.006;5.798;2023-02-07T06:22:06;22.20;;;9.27;;
35126;SDS011;21300;52.006;5.798;2023-02-07T06:24:32;24.77;;;10.65;;
35126;SDS011;21300;52.006;5.798;2023-02-07T06:26:57;25.63;;;11.23;;
35126;SDS011;21300;52.006;5.798;2023-02-07T06:29:23;25.33;;;11.45;;
35126;SDS011;21300;52.006;5.798;2023-02-07T06:31:48;23.02;;;10.55;;
35126;SDS011;21300;52.006;5.798;2023-02-07T06:34:14;28.17;;;11.65;;
35126;SDS011;21300;52.006;5.798;2023-02-07T06:36:39;20.75;;;9.20;;
35126;SDS011;21300;52.006;5.798;2023-02-07T06:39:05;28.50;;;11.52;;
35126;SDS011;21300;52.006;5.798;2023-02-07T06:41:31;26.95;;;11.07;;
35126;SDS011;21300;52.006;5.798;2023-02-07T06:43:56;22.83;;;11.27;;
35126;SDS011;21300;52.006;5.798;2023-02-07T06:46:22;25.55;;;11.00;;
35126;SDS011;21300;52.006;5.798;2023-02-07T06:48:48;25.25;;;10.55;;
35126;SDS011;21300;52.006;5.798;2023-02-07T06:51:13;25.63;;;11.10;;
35126;SDS011;21300;52.006;5.798;2023-02-07T06:53:39;29.33;;;11.38;;
35126;SDS011;21300;52.006;5.798;2023-02-07T06:56:04;28.70;;;12.15;;
35126;SDS011;21300;52.006;5.798;2023-02-07T06:58:30;23.77;;;10.85;;
35126;SDS011;21300;52.006;5.798;2023-02-07T07:00:55;20.92;;;10.77;;
35126;SDS011;21300;52.006;5.798;2023-02-07T07:03:21;21.15;;;10.32;;
35126;SDS011;21300;52.006;5.798;2023-02-07T07:05:51;25.88;;;11.13;;
35126;SDS011;21300;52.006;5.798;2023-02-07T07:08:16;22.65;;;11.10;;
35126;SDS011;21300;52.006;5.798;2023-02-07T07:10:42;26.27;;;11.38;;
35126;SDS011;21300;52.006;5.798;2023-02-07T07:13:26;28.60;;;11.32;;
35126;SDS011;21300;52.006;5.798;2023-02-07T07:15:52;21.40;;;10.73;;
35126;SDS011;21300;52.006;5.798;2023-02-07T07:18:17;24.27;;;11.10;;
35126;SDS011;21300;52.006;5.798;2023-02-07T07:20:43;27.92;;;11.60;;
35126;SDS011;21300;52.006;5.798;2023-02-07T07:23:08;25.70;;;11.90;;
35126;SDS011;21300;52.006;5.798;2023-02-07T07:25:34;22.30;;;11.32;;
35126;SDS011;21300;52.006;5.798;2023-02-07T07:27:59;23.80;;;11.38;;
35126;SDS011;21300;52.006;5.798;2023-02-07T07:30:25;25.25;;;12.30;;
35126;SDS011;21300;52.006;5.798;2023-02-07T07:32:51;27.02;;;11.18;;
35126;SDS011;21300;52.006;5.798;2023-02-07T07:35:16;23.38;;;11.07;;
35126;SDS011;21300;52.006;5.798;2023-02-07T07:37:42;25.65;;;12.00;;
35126;SDS011;21300;52.006;5.798;2023-02-07T07:40:08;29.33;;;11.82;;
35126;SDS011;21300;52.006;5.798;2023-02-07T07:42:34;27.23;;;11.38;;
35126;SDS011;21300;52.006;5.798;2023-02-07T07:45:00;30.20;;;13.43;;
35126;SDS011;21300;52.006;5.798;2023-02-07T07:47:26;27.83;;;12.57;;
35126;SDS011;21300;52.006;5.798;2023-02-07T07:49:52;27.88;;;12.07;;
35126;SDS011;21300;52.006;5.798;2023-02-07T07:52:18;26.55;;;12.80;;
35126;SDS011;21300;52.006;5.798;2023-02-07T07:54:44;27.27;;;12.77;;
35126;SDS011;21300;52.006;5.798;2023-02-07T07:57:10;28.17;;;13.88;;
35126;SDS011;21300;52.006;5.798;2023-02-07T07:59:35;28.58;;;13.40;;
35126;SDS011;21300;52.006;5.798;2023-02-07T08:02:01;27.63;;;15.48;;
35126;SDS011;21300;52.006;5.798;2023-02-07T08:04:26;29.85;;;13.75;;
35126;SDS011;21300;52.006;5.798;2023-02-07T08:06:52;28.73;;;15.77;;
35126;SDS011;21300;52.006;5.798;2023-02-07T08:09:17;32.10;;;15.68;;
35126;SDS011;21300;52.006;5.798;2023-02-07T08:11:43;32.95;;;15.48;;
35126;SDS011;21300;52.006;5.798;2023-02-07T08:14:08;33.33;;;15.30;;
35126;SDS011;21300;52.006;5.798;2023-02-07T08:16:34;29.15;;;14.32;;
35126;SDS011;21300;52.006;5.798;2023-02-07T08:18:59;27.98;;;14.35;;
35126;SDS011;21300;52.006;5.798;2023-02-07T08:21:25;32.92;;;14.55;;
35126;SDS011;21300;52.006;5.798;2023-02-07T08:23:51;29.85;;;14.60;;
35126;SDS011;21300;52.006;5.798;2023-02-07T08:26:17;35.03;;;15.52;;
35126;SDS011;21300;52.006;5.798;2023-02-07T08:28:43;34.20;;;16.00;;
35126;SDS011;21300;52.006;5.798;2023-02-07T08:31:09;32.33;;;16.13;;
35126;SDS011;21300;52.006;5.798;2023-02-07T08:33:36;34.38;;;16.05;;
35126;SDS011;21300;52.006;5.798;2023-02-07T08:36:02;35.33;;;17.95;;
35126;SDS011;21300;52.006;5.798;2023-02-07T08:38:32;41.85;;;17.52;;
35126;SDS011;21300;52.006;5.798;2023-02-07T08:40:57;35.72;;;16.73;;
35126;SDS011;21300;52.006;5.798;2023-02-07T08:43:23;32.13;;;15.27;;
35126;SDS011;21300;52.006;5.798;2023-02-07T08:45:48;40.75;;;17.58;;
35126;SDS011;21300;52.006;5.798;2023-02-07T08:48:14;35.20;;;17.23;;
35126;SDS011;21300;52.006;5.798;2023-02-07T08:50:40;40.08;;;15.77;;
35126;SDS011;21300;52.006;5.798;2023-02-07T08:53:06;43.10;;;18.60;;
35126;SDS011;21300;52.006;5.798;2023-02-07T08:55:31;35.97;;;17.38;;
35126;SDS011;21300;52.006;5.798;2023-02-07T08:57:57;40.22;;;18.25;;
35126;SDS011;21300;52.006;5.798;2023-02-07T09:00:22;39.85;;;17.70;;
35126;SDS011;21300;52.006;5.798;2023-02-07T09:02:48;37.28;;;17.23;;
35126;SDS011;21300;52.006;5.798;2023-02-07T09:05:13;42.78;;;18.05;;
35126;SDS011;21300;52.006;5.798;2023-02-07T09:07:39;42.30;;;17.98;;
35126;SDS011;21300;52.006;5.798;2023-02-07T09:10:05;42.33;;;17.70;;
35126;SDS011;21300;52.006;5.798;2023-02-07T09:12:33;41.35;;;19.23;;
35126;SDS011;21300;52.006;5.798;2023-02-07T09:14:59;40.33;;;18.20;;
35126;SDS011;21300;52.006;5.798;2023-02-07T09:17:24;40.92;;;18.27;;
35126;SDS011;21300;52.006;5.798;2023-02-07T09:19:50;42.45;;;19.58;;
35126;SDS011;21300;52.006;5.798;2023-02-07T09:22:16;45.17;;;21.00;;
35126;SDS011;21300;52.006;5.798;2023-02-07T09:24:42;39.10;;;18.92;;
35126;SDS011;21300;52.006;5.798;2023-02-07T09:27:07;39.25;;;18.10;;
35126;SDS011;21300;52.006;5.798;2023-02-07T09:29:33;43.65;;;19.65;;
35126;SDS011;21300;52.006;5.798;2023-02-07T09:31:58;43.50;;;19.77;;
35126;SDS011;21300;52.006;5.798;2023-02-07T09:34:24;43.28;;;19.55;;
35126;SDS011;21300;52.006;5.798;2023-02-07T09:36:51;43.28;;;20.05;;
35126;SDS011;21300;52.006;5.798;2023-02-07T09:39:17;42.08;;;20.95;;
35126;SDS011;21300;52.006;5.798;2023-02-07T09:41:50;39.13;;;19.73;;
35126;SDS011;21300;52.006;5.798;2023-02-07T09:44:33;41.20;;;20.13;;
35126;SDS011;21300;52.006;5.798;2023-02-07T09:47:13;45.20;;;20.15;;
35126;SDS011;21300;52.006;5.798;2023-02-07T09:49:45;42.58;;;19.92;;
35126;SDS011;21300;52.006;5.798;2023-02-07T09:52:24;43.22;;;18.40;;
35126;SDS011;21300;52.006;5.798;2023-02-07T09:55:15;37.63;;;18.40;;
35126;SDS011;21300;52.006;5.798;2023-02-07T09:58:08;38.65;;;18.55;;
35126;SDS011;21300;52.006;5.798;2023-02-07T10:03:19;45.30;;;17.05;;
35126;SDS011;21300;52.006;5.798;2023-02-07T10:06:22;41.75;;;18.63;;
35126;SDS011;21300;52.006;5.798;2023-02-07T10:08:48;42.05;;;19.17;;
35126;SDS011;21300;52.006;5.798;2023-02-07T10:11:27;41.75;;;19.02;;
35126;SDS011;21300;52.006;5.798;2023-02-07T10:14:15;36.22;;;18.05;;
35126;SDS011;21300;52.006;5.798;2023-02-07T10:19:46;43.58;;;19.02;;
35126;SDS011;21300;52.006;5.798;2023-02-07T10:30:36;40.05;;;17.38;;
35126;SDS011;21300;52.006;5.798;2023-02-07T10:33:06;42.10;;;18.00;;
35126;SDS011;21300;52.006;5.798;2023-02-07T10:35:38;35.33;;;17.60;;
35126;SDS011;21300;52.006;5.798;2023-02-07T10:38:05;35.90;;;15.32;;
35126;SDS011;21300;52.006;5.798;2023-02-07T10:45:55;40.25;;;16.80;;
35126;SDS011;21300;52.006;5.798;2023-02-07T10:48:28;41.00;;;16.88;;
35126;SDS011;21300;52.006;5.798;2023-02-07T10:50:54;39.85;;;16.70;;
35126;SDS011;21300;52.006;5.798;2023-02-07T10:56:16;33.90;;;16.98;;
35126;SDS011;21300;52.006;5.798;2023-02-07T10:58:43;39.83;;;16.90;;
35126;SDS011;21300;52.006;5.798;2023-02-07T11:01:19;34.75;;;14.77;;
35126;SDS011;21300;52.006;5.798;2023-02-07T11:03:47;35.78;;;15.93;;
35126;SDS011;21300;52.006;5.798;2023-02-07T11:06:14;29.08;;;13.52;;
35126;SDS011;21300;52.006;5.798;2023-02-07T11:08:48;24.33;;;11.65;;
35126;SDS011;21300;52.006;5.798;2023-02-07T11:13:48;29.70;;;14.18;;
35126;SDS011;21300;52.006;5.798;2023-02-07T11:16:16;26.15;;;12.57;;
35126;SDS011;21300;52.006;5.798;2023-02-07T11:24:23;22.27;;;10.93;;
35126;SDS011;21300;52.006;5.798;2023-02-07T11:29:19;25.65;;;12.18;;
35126;SDS011;21300;52.006;5.798;2023-02-07T11:31:48;21.25;;;10.55;;
35126;SDS011;21300;52.006;5.798;2023-02-07T11:34:28;18.50;;;9.80;;
35126;SDS011;21300;52.006;5.798;2023-02-07T11:37:07;21.85;;;10.80;;
35126;SDS011;21300;52.006;5.798;2023-02-07T11:39:43;22.77;;;9.95;;
35126;SDS011;21300;52.006;5.798;2023-02-07T11:42:10;16.63;;;9.27;;
35126;SDS011;21300;52.006;5.798;2023-02-07T11:44:42;20.80;;;10.52;;
35126;SDS011;21300;52.006;5.798;2023-02-07T11:47:12;18.95;;;9.93;;
35126;SDS011;21300;52.006;5.798;2023-02-07T11:49:45;14.73;;;8.07;;
35126;SDS011;21300;52.006;5.798;2023-02-07T11:52:14;15.50;;;9.05;;
35126;SDS011;21300;52.006;5.798;2023-02-07T11:54:41;13.98;;;8.13;;
35126;SDS011;21300;52.006;5.798;2023-02-07T11:57:14;13.25;;;7.93;;
35126;SDS011;21300;52.006;5.798;2023-02-07T12:00:24;15.52;;;8.30;;
35126;SDS011;21300;52.006;5.798;2023-02-07T12:02:40;14.02;;;7.93;;
35126;SDS011;21300;52.006;5.798;2023-02-07T12:05:20;13.55;;;7.85;;
35126;SDS011;21300;52.006;5.798;2023-02-07T12:07:49;13.88;;;7.47;;
35126;SDS011;21300;52.006;5.798;2023-02-07T12:10:31;14.90;;;7.97;;
35126;SDS011;21300;52.006;5.798;2023-02-07T12:13:04;14.00;;;7.82;;
35126;SDS011;21300;52.006;5.798;2023-02-07T12:15:36;15.52;;;7.90;;
35126;SDS011;21300;52.006;5.798;2023-02-07T12:18:10;14.40;;;8.15;;
35126;SDS011;21300;52.006;5.798;2023-02-07T12:23:59;13.10;;;7.35;;
35126;SDS011;21300;52.006;5.798;2023-02-07T12:34:24;14.75;;;7.43;;
35126;SDS011;21300;52.006;5.798;2023-02-07T12:37:02;15.60;;;8.75;;
35126;SDS011;21300;52.006;5.798;2023-02-07T12:39:47;11.15;;;6.63;;
35126;SDS011;21300;52.006;5.798;2023-02-07T12:50:00;10.95;;;6.88;;
35126;SDS011;21300;52.006;5.798;2023-02-07T12:58:04;11.13;;;6.00;;
35126;SDS011;21300;52.006;5.798;2023-02-07T13:03:56;11.60;;;6.93;;
35126;SDS011;21300;52.006;5.798;2023-02-07T13:06:43;14.73;;;7.13;;
35126;SDS011;21300;52.006;5.798;2023-02-07T13:09:31;10.55;;;6.72;;
35126;SDS011;21300;52.006;5.798;2023-02-07T13:12:07;13.25;;;7.07;;
35126;SDS011;21300;52.006;5.798;2023-02-07T13:23:23;13.02;;;6.82;;
35126;SDS011;21300;52.006;5.798;2023-02-07T13:25:53;12.98;;;6.97;;
35126;SDS011;21300;52.006;5.798;2023-02-07T13:30:54;13.45;;;7.53;;
35126;SDS011;21300;52.006;5.798;2023-02-07T13:33:27;14.45;;;8.70;;
35126;SDS011;21300;52.006;5.798;2023-02-07T13:35:57;14.48;;;7.97;;
35126;SDS011;21300;52.006;5.798;2023-02-07T13:52:08;13.10;;;6.85;;
35126;SDS011;21300;52.006;5.798;2023-02-07T13:54:44;13.27;;;7.38;;
35126;SDS011;21300;52.006;5.798;2023-02-07T13:57:43;9.63;;;5.93;;
35126;SDS011;21300;52.006;5.798;2023-02-07T14:00:29;9.80;;;5.63;;
35126;SDS011;21300;52.006;5.798;2023-02-07T14:02:57;9.98;;;5.75;;
35126;SDS011;21300;52.006;5.798;2023-02-07T14:07:59;10.13;;;6.57;;
35126;SDS011;21300;52.006;5.798;2023-02-07T14:12:58;9.25;;;5.65;;
35126;SDS011;21300;52.006;5.798;2023-02-07T14:17:56;10.40;;;6.47;;
35126;SDS011;21300;52.006;5.798;2023-02-07T14:25:37;12.32;;;5.72;;
35126;SDS011;21300;52.006;5.798;2023-02-07T14:30:37;10.75;;;5.63;;
35126;SDS011;21300;52.006;5.798;2023-02-07T14:33:33;10.55;;;5.97;;
35126;SDS011;21300;52.006;5.798;2023-02-07T14:41:08;10.57;;;7.50;;
35126;SDS011;21300;52.006;5.798;2023-02-07T14:46:09;11.98;;;7.32;;
35126;SDS011;21300;52.006;5.798;2023-02-07T14:48:51;11.27;;;7.25;;
35126;SDS011;21300;52.006;5.798;2023-02-07T14:51:23;11.20;;;6.78;;
35126;SDS011;21300;52.006;5.798;2023-02-07T14:56:36;14.20;;;7.93;;
35126;SDS011;21300;52.006;5.798;2023-02-07T14:59:08;13.98;;;8.38;;
35126;SDS011;21300;52.006;5.798;2023-02-07T15:01:39;12.68;;;8.00;;
35126;SDS011;21300;52.006;5.798;2023-02-07T15:04:05;12.98;;;7.78;;
35126;SDS011;21300;52.006;5.798;2023-02-07T15:06:37;12.18;;;7.50;;
35126;SDS011;21300;52.006;5.798;2023-02-07T15:09:05;11.65;;;7.55;;
35126;SDS011;21300;52.006;5.798;2023-02-07T15:11:31;13.90;;;7.85;;
35126;SDS011;21300;52.006;5.798;2023-02-07T15:13:58;14.82;;;7.97;;
35126;SDS011;21300;52.006;5.798;2023-02-07T15:18:56;13.35;;;7.30;;
35126;SDS011;21300;52.006;5.798;2023-02-07T15:21:31;15.82;;;7.55;;
35126;SDS011;21300;52.006;5.798;2023-02-07T15:24:01;14.02;;;8.30;;
35126;SDS011;21300;52.006;5.798;2023-02-07T15:26:32;11.57;;;7.68;;
35126;SDS011;21300;52.006;5.798;2023-02-07T15:29:03;13.57;;;8.10;;
35126;SDS011;21300;52.006;5.798;2023-02-07T15:31:38;13.30;;;9.02;;
35126;SDS011;21300;52.006;5.798;2023-02-07T15:34:05;12.35;;;8.07;;
35126;SDS011;21300;52.006;5.798;2023-02-07T15:36:40;13.65;;;8.32;;
35126;SDS011;21300;52.006;5.798;2023-02-07T15:39:13;12.98;;;7.97;;
35126;SDS011;21300;52.006;5.798;2023-02-07T15:41:48;14.82;;;9.43;;
35126;SDS011;21300;52.006;5.798;2023-02-07T15:44:19;11.88;;;8.70;;
35126;SDS011;21300;52.006;5.798;2023-02-07T15:51:52;13.40;;;8.25;;
35126;SDS011;21300;52.006;5.798;2023-02-07T15:54:33;12.07;;;8.15;;
35126;SDS011;21300;52.006;5.798;2023-02-07T15:57:04;13.30;;;8.48;;
35126;SDS011;21300;52.006;5.798;2023-02-07T15:59:47;13.60;;;9.20;;
35126;SDS011;21300;52.006;5.798;2023-02-07T16:02:26;14.80;;;9.07;;
35126;SDS011;21300;52.006;5.798;2023-02-07T16:04:55;14.30;;;8.88;;
35126;SDS011;21300;52.006;5.798;2023-02-07T16:07:22;13.35;;;8.80;;
35126;SDS011;21300;52.006;5.798;2023-02-07T16:09:49;13.07;;;8.75;;
35126;SDS011;21300;52.006;5.798;2023-02-07T16:15:24;10.63;;;7.70;;
35126;SDS011;21300;52.006;5.798;2023-02-07T16:17:58;12.70;;;8.55;;
35126;SDS011;21300;52.006;5.798;2023-02-07T16:20:25;14.57;;;8.38;;
35126;SDS011;21300;52.006;5.798;2023-02-07T16:22:53;13.13;;;8.48;;
35126;SDS011;21300;52.006;5.798;2023-02-07T16:25:25;18.77;;;8.60;;
35126;SDS011;21300;52.006;5.798;2023-02-07T16:27:54;12.13;;;8.13;;
35126;SDS011;21300;52.006;5.798;2023-02-07T16:30:22;15.23;;;8.35;;
35126;SDS011;21300;52.006;5.798;2023-02-07T16:32:51;11.85;;;7.50;;
35126;SDS011;21300;52.006;5.798;2023-02-07T16:35:24;13.35;;;8.48;;
35126;SDS011;21300;52.006;5.798;2023-02-07T16:37:51;12.43;;;7.30;;
35126;SDS011;21300;52.006;5.798;2023-02-07T16:40:18;12.27;;;8.02;;
35126;SDS011;21300;52.006;5.798;2023-02-07T16:42:46;13.38;;;8.38;;
35126;SDS011;21300;52.006;5.798;2023-02-07T16:45:16;12.02;;;7.55;;
35126;SDS011;21300;52.006;5.798;2023-02-07T16:47:44;13.07;;;7.65;;
35126;SDS011;21300;52.006;5.798;2023-02-07T16:50:14;14.63;;;8.57;;
35126;SDS011;21300;52.006;5.798;2023-02-07T16:52:42;11.98;;;8.13;;
35126;SDS011;21300;52.006;5.798;2023-02-07T16:55:08;13.38;;;8.02;;
35126;SDS011;21300;52.006;5.798;2023-02-07T16:57:35;13.02;;;7.90;;
35126;SDS011;21300;52.006;5.798;2023-02-07T17:00:03;16.85;;;10.40;;
35126;SDS011;21300;52.006;5.798;2023-02-07T17:02:30;14.50;;;8.68;;
35126;SDS011;21300;52.006;5.798;2023-02-07T17:04:55;13.02;;;8.25;;
35126;SDS011;21300;52.006;5.798;2023-02-07T17:07:21;11.07;;;8.05;;
35126;SDS011;21300;52.006;5.798;2023-02-07T17:09:47;12.70;;;7.82;;
35126;SDS011;21300;52.006;5.798;2023-02-07T17:12:14;15.32;;;9.35;;
35126;SDS011;21300;52.006;5.798;2023-02-07T17:14:40;14.38;;;8.82;;
35126;SDS011;21300;52.006;5.798;2023-02-07T17:17:05;13.30;;;8.32;;